Fairfield Municipal Airport


Codes: KFWC/
Name: Fairfield Municipal Airport
City: Fairfield
Country: United States
Elevation: 436 ft.

Photos at Fairfield Municipal Airport


   Photos courtesy of SpottingLog. You can add your own sightings and photos by signing up for a free trial today.



No photos found.

Weather at Fairfield Municipal Airport


Time (UTC)DescriptionTempratureWindCloud coverageVisibilityPressureHumidity
21-Jun-2024 15:00Clear Sky24°C4 mph, SW1%10000m1024hPa77%
21-Jun-2024 18:00Clear Sky29°C7 mph, SW5%10000m1023hPa62%
21-Jun-2024 21:00Scattered Clouds33°C4 mph, S31%10000m1019hPa43%
22-Jun-2024 00:00Few Clouds29°C7 mph, SW23%10000m1019hPa63%
22-Jun-2024 03:00Overcast Clouds25°C7 mph, SW96%10000m1019hPa70%
22-Jun-2024 06:00Scattered Clouds24°C7 mph, SW50%10000m1018hPa69%
22-Jun-2024 09:00Scattered Clouds22°C7 mph, SW38%10000m1018hPa76%
22-Jun-2024 12:00Broken Clouds23°C7 mph, S55%10000m1018hPa82%
22-Jun-2024 15:00Scattered Clouds29°C9 mph, SW50%10000m1017hPa61%
22-Jun-2024 18:00Broken Clouds32°C13 mph, SW75%10000m1015hPa47%
22-Jun-2024 21:00Broken Clouds32°C13 mph, SW67%10000m1013hPa47%
23-Jun-2024 00:00Overcast Clouds29°C9 mph, SW85%10000m1012hPa64%
23-Jun-2024 03:00Overcast Clouds26°C11 mph, S86%10000m1011hPa74%
23-Jun-2024 06:00Broken Clouds25°C11 mph, SW59%10000m1011hPa67%
23-Jun-2024 09:00Broken Clouds25°C13 mph, SW76%10000m1010hPa67%
23-Jun-2024 12:00Light Rain23°C9 mph, SW83%10000m1010hPa86%
23-Jun-2024 15:00Light Rain28°C16 mph, W81%10000m1010hPa69%
23-Jun-2024 18:00Broken Clouds28°C11 mph, NW74%10000m1010hPa72%
23-Jun-2024 21:00Scattered Clouds32°C11 mph, NW38%10000m1009hPa48%
24-Jun-2024 00:00Few Clouds28°C9 mph, NW19%10000m1010hPa65%
24-Jun-2024 03:00Clear Sky23°C7 mph, N0%10000m1011hPa78%
24-Jun-2024 06:00Clear Sky21°C4 mph, NE0%10000m1011hPa88%
24-Jun-2024 09:00Clear Sky20°C2 mph, NE0%10000m1012hPa90%
24-Jun-2024 12:00Clear Sky22°C4 mph, SE0%10000m1012hPa85%
24-Jun-2024 15:00Clear Sky27°C7 mph, S0%10000m1012hPa63%
24-Jun-2024 18:00Clear Sky31°C9 mph, S0%10000m1011hPa55%
24-Jun-2024 21:00Clear Sky34°C9 mph, SW6%10000m1009hPa51%
25-Jun-2024 00:00Clear Sky32°C7 mph, S5%10000m1008hPa66%
25-Jun-2024 03:00Clear Sky28°C9 mph, SW2%10000m1009hPa77%
25-Jun-2024 06:00Clear Sky27°C13 mph, SW0%10000m1009hPa76%
25-Jun-2024 09:00Light Rain24°C9 mph, SW1%10000m1009hPa69%
25-Jun-2024 12:00Clear Sky24°C9 mph, SW1%10000m1010hPa82%
25-Jun-2024 15:00Clear Sky31°C13 mph, SW0%10000m1010hPa60%
25-Jun-2024 18:00Scattered Clouds35°C16 mph, SW30%10000m1008hPa46%
25-Jun-2024 21:00Overcast Clouds35°C13 mph, SW100%10000m1007hPa49%
26-Jun-2024 00:00Broken Clouds31°C13 mph, SW68%10000m1005hPa62%
26-Jun-2024 03:00Scattered Clouds28°C16 mph, SW30%10000m1006hPa66%
26-Jun-2024 06:00Moderate Rain23°C7 mph, N66%10000m1008hPa89%
26-Jun-2024 09:00Moderate Rain20°C9 mph, NE100%10000m1009hPa94%
26-Jun-2024 12:00Light Rain21°C9 mph, SW100%10000m1008hPa93%